sensor_id;sensor_type;location;lat;lon;timestamp;P1;durP1;ratioP1;P2;durP2;ratioP2
68126;SDS011;54931;52.098;21.006;2023-04-06T00:01:57;11.00;;;5.70;;
68126;SDS011;54931;52.098;21.006;2023-04-06T00:04:24;11.50;;;4.90;;
68126;SDS011;54931;52.098;21.006;2023-04-06T00:06:52;8.70;;;4.50;;
68126;SDS011;54931;52.098;21.006;2023-04-06T00:09:20;8.10;;;4.80;;
68126;SDS011;54931;52.098;21.006;2023-04-06T00:11:47;13.10;;;5.80;;
68126;SDS011;54931;52.098;21.006;2023-04-06T00:14:14;9.30;;;5.30;;
68126;SDS011;54931;52.098;21.006;2023-04-06T00:16:44;13.00;;;5.90;;
68126;SDS011;54931;52.098;21.006;2023-04-06T00:19:12;9.50;;;5.10;;
68126;SDS011;54931;52.098;21.006;2023-04-06T00:21:39;9.10;;;4.20;;
68126;SDS011;54931;52.098;21.006;2023-04-06T00:24:08;12.70;;;5.80;;
68126;SDS011;54931;52.098;21.006;2023-04-06T00:26:35;10.80;;;4.90;;
68126;SDS011;54931;52.098;21.006;2023-04-06T00:29:03;10.40;;;5.40;;
68126;SDS011;54931;52.098;21.006;2023-04-06T00:31:30;11.40;;;5.50;;
68126;SDS011;54931;52.098;21.006;2023-04-06T00:33:58;10.80;;;5.30;;
68126;SDS011;54931;52.098;21.006;2023-04-06T00:36:26;10.80;;;5.30;;
68126;SDS011;54931;52.098;21.006;2023-04-06T00:38:53;11.30;;;4.70;;
68126;SDS011;54931;52.098;21.006;2023-04-06T00:41:22;12.90;;;5.50;;
68126;SDS011;54931;52.098;21.006;2023-04-06T00:43:49;11.20;;;5.10;;
68126;SDS011;54931;52.098;21.006;2023-04-06T00:46:17;11.00;;;5.10;;
68126;SDS011;54931;52.098;21.006;2023-04-06T00:48:44;13.10;;;5.80;;
68126;SDS011;54931;52.098;21.006;2023-04-06T00:51:12;8.50;;;4.40;;
68126;SDS011;54931;52.098;21.006;2023-04-06T00:53:40;10.50;;;5.50;;
68126;SDS011;54931;52.098;21.006;2023-04-06T00:56:07;11.50;;;4.90;;
68126;SDS011;54931;52.098;21.006;2023-04-06T00:58:36;9.30;;;5.20;;
68126;SDS011;54931;52.098;21.006;2023-04-06T01:01:05;10.70;;;5.40;;
68126;SDS011;54931;52.098;21.006;2023-04-06T01:03:33;13.40;;;5.10;;
68126;SDS011;54931;52.098;21.006;2023-04-06T01:06:01;12.00;;;5.90;;
68126;SDS011;54931;52.098;21.006;2023-04-06T01:08:28;11.00;;;5.30;;
68126;SDS011;54931;52.098;21.006;2023-04-06T01:10:59;10.90;;;5.40;;
68126;SDS011;54931;52.098;21.006;2023-04-06T01:13:30;11.50;;;5.40;;
68126;SDS011;54931;52.098;21.006;2023-04-06T01:15:58;13.30;;;6.20;;
68126;SDS011;54931;52.098;21.006;2023-04-06T01:18:27;12.70;;;6.20;;
68126;SDS011;54931;52.098;21.006;2023-04-06T01:20:55;14.60;;;6.40;;
68126;SDS011;54931;52.098;21.006;2023-04-06T01:23:22;13.20;;;5.90;;
68126;SDS011;54931;52.098;21.006;2023-04-06T01:25:50;13.30;;;6.90;;
68126;SDS011;54931;52.098;21.006;2023-04-06T01:28:18;17.90;;;6.40;;
68126;SDS011;54931;52.098;21.006;2023-04-06T01:30:45;11.50;;;6.00;;
68126;SDS011;54931;52.098;21.006;2023-04-06T01:33:13;13.30;;;6.20;;
68126;SDS011;54931;52.098;21.006;2023-04-06T01:35:40;13.70;;;6.80;;
68126;SDS011;54931;52.098;21.006;2023-04-06T01:38:08;13.00;;;6.40;;
68126;SDS011;54931;52.098;21.006;2023-04-06T01:40:35;18.30;;;6.70;;
68126;SDS011;54931;52.098;21.006;2023-04-06T01:43:03;14.00;;;7.20;;
68126;SDS011;54931;52.098;21.006;2023-04-06T01:45:31;12.90;;;6.90;;
68126;SDS011;54931;52.098;21.006;2023-04-06T01:47:58;11.40;;;6.20;;
68126;SDS011;54931;52.098;21.006;2023-04-06T01:50:25;13.00;;;6.40;;
68126;SDS011;54931;52.098;21.006;2023-04-06T01:52:53;13.80;;;6.10;;
68126;SDS011;54931;52.098;21.006;2023-04-06T01:55:22;13.20;;;6.50;;
68126;SDS011;54931;52.098;21.006;2023-04-06T01:57:49;14.70;;;6.30;;
68126;SDS011;54931;52.098;21.006;2023-04-06T02:00:17;14.70;;;6.60;;
68126;SDS011;54931;52.098;21.006;2023-04-06T02:02:46;12.30;;;5.90;;
68126;SDS011;54931;52.098;21.006;2023-04-06T02:05:13;11.80;;;5.80;;
68126;SDS011;54931;52.098;21.006;2023-04-06T02:07:41;12.10;;;6.40;;
68126;SDS011;54931;52.098;21.006;2023-04-06T02:10:13;13.30;;;5.90;;
68126;SDS011;54931;52.098;21.006;2023-04-06T02:12:42;15.10;;;6.40;;
68126;SDS011;54931;52.098;21.006;2023-04-06T02:15:10;12.10;;;5.90;;
68126;SDS011;54931;52.098;21.006;2023-04-06T02:17:37;10.40;;;5.80;;
68126;SDS011;54931;52.098;21.006;2023-04-06T02:20:06;12.10;;;5.90;;
68126;SDS011;54931;52.098;21.006;2023-04-06T02:22:37;13.90;;;5.60;;
68126;SDS011;54931;52.098;21.006;2023-04-06T02:25:05;11.30;;;5.70;;
68126;SDS011;54931;52.098;21.006;2023-04-06T02:27:33;10.60;;;5.40;;
68126;SDS011;54931;52.098;21.006;2023-04-06T02:30:00;14.00;;;5.50;;
68126;SDS011;54931;52.098;21.006;2023-04-06T02:32:29;16.60;;;5.70;;
68126;SDS011;54931;52.098;21.006;2023-04-06T02:34:57;9.60;;;5.00;;
68126;SDS011;54931;52.098;21.006;2023-04-06T02:37:24;10.50;;;5.30;;
68126;SDS011;54931;52.098;21.006;2023-04-06T02:39:52;11.60;;;5.90;;
68126;SDS011;54931;52.098;21.006;2023-04-06T02:42:19;10.80;;;5.30;;
68126;SDS011;54931;52.098;21.006;2023-04-06T02:44:47;13.80;;;5.70;;
68126;SDS011;54931;52.098;21.006;2023-04-06T02:47:15;13.40;;;5.00;;
68126;SDS011;54931;52.098;21.006;2023-04-06T02:49:42;10.40;;;5.10;;
68126;SDS011;54931;52.098;21.006;2023-04-06T02:52:10;11.20;;;5.40;;
68126;SDS011;54931;52.098;21.006;2023-04-06T02:54:37;10.70;;;4.90;;
68126;SDS011;54931;52.098;21.006;2023-04-06T02:57:05;13.30;;;5.00;;
68126;SDS011;54931;52.098;21.006;2023-04-06T02:59:33;10.00;;;5.10;;
68126;SDS011;54931;52.098;21.006;2023-04-06T03:02:00;11.10;;;5.70;;
68126;SDS011;54931;52.098;21.006;2023-04-06T03:04:27;11.10;;;4.80;;
68126;SDS011;54931;52.098;21.006;2023-04-06T03:06:55;11.30;;;5.30;;
68126;SDS011;54931;52.098;21.006;2023-04-06T03:09:22;13.80;;;5.80;;
68126;SDS011;54931;52.098;21.006;2023-04-06T03:11:50;10.50;;;5.40;;
68126;SDS011;54931;52.098;21.006;2023-04-06T03:14:18;11.70;;;5.70;;
68126;SDS011;54931;52.098;21.006;2023-04-06T03:16:48;12.60;;;5.40;;
68126;SDS011;54931;52.098;21.006;2023-04-06T03:19:16;13.40;;;5.70;;
68126;SDS011;54931;52.098;21.006;2023-04-06T03:21:43;11.90;;;4.90;;
68126;SDS011;54931;52.098;21.006;2023-04-06T03:24:11;12.90;;;5.80;;
68126;SDS011;54931;52.098;21.006;2023-04-06T03:26:41;11.90;;;5.10;;
68126;SDS011;54931;52.098;21.006;2023-04-06T03:29:08;13.40;;;5.50;;
68126;SDS011;54931;52.098;21.006;2023-04-06T03:31:37;14.40;;;5.50;;
68126;SDS011;54931;52.098;21.006;2023-04-06T03:34:05;12.00;;;5.40;;
68126;SDS011;54931;52.098;21.006;2023-04-06T03:36:34;18.80;;;5.50;;
68126;SDS011;54931;52.098;21.006;2023-04-06T03:39:02;11.20;;;5.80;;
68126;SDS011;54931;52.098;21.006;2023-04-06T03:41:30;14.40;;;5.80;;
68126;SDS011;54931;52.098;21.006;2023-04-06T03:43:59;14.10;;;6.00;;
68126;SDS011;54931;52.098;21.006;2023-04-06T03:46:27;13.70;;;6.10;;
68126;SDS011;54931;52.098;21.006;2023-04-06T03:48:55;18.60;;;6.10;;
68126;SDS011;54931;52.098;21.006;2023-04-06T03:51:23;18.70;;;6.70;;
68126;SDS011;54931;52.098;21.006;2023-04-06T03:53:50;14.00;;;5.50;;
68126;SDS011;54931;52.098;21.006;2023-04-06T03:56:18;16.50;;;6.30;;
68126;SDS011;54931;52.098;21.006;2023-04-06T03:58:46;14.90;;;6.20;;
68126;SDS011;54931;52.098;21.006;2023-04-06T04:01:17;19.20;;;6.80;;
68126;SDS011;54931;52.098;21.006;2023-04-06T04:03:45;18.10;;;7.30;;
68126;SDS011;54931;52.098;21.006;2023-04-06T04:06:13;13.90;;;6.60;;
68126;SDS011;54931;52.098;21.006;2023-04-06T04:08:40;15.90;;;6.00;;
68126;SDS011;54931;52.098;21.006;2023-04-06T04:11:08;13.40;;;5.90;;
68126;SDS011;54931;52.098;21.006;2023-04-06T04:13:36;16.50;;;6.90;;
68126;SDS011;54931;52.098;21.006;2023-04-06T04:16:04;17.00;;;6.20;;
68126;SDS011;54931;52.098;21.006;2023-04-06T04:18:32;16.30;;;6.40;;
68126;SDS011;54931;52.098;21.006;2023-04-06T04:20:59;14.80;;;6.40;;
68126;SDS011;54931;52.098;21.006;2023-04-06T04:23:27;15.20;;;5.80;;
68126;SDS011;54931;52.098;21.006;2023-04-06T04:25:54;14.30;;;6.20;;
68126;SDS011;54931;52.098;21.006;2023-04-06T04:28:22;15.00;;;7.00;;
68126;SDS011;54931;52.098;21.006;2023-04-06T04:30:50;15.50;;;6.80;;
68126;SDS011;54931;52.098;21.006;2023-04-06T04:33:17;15.20;;;6.40;;
68126;SDS011;54931;52.098;21.006;2023-04-06T04:35:45;15.70;;;6.70;;
68126;SDS011;54931;52.098;21.006;2023-04-06T04:38:12;12.90;;;7.20;;
68126;SDS011;54931;52.098;21.006;2023-04-06T04:40:40;16.80;;;7.40;;
68126;SDS011;54931;52.098;21.006;2023-04-06T04:43:07;17.90;;;7.40;;
68126;SDS011;54931;52.098;21.006;2023-04-06T04:45:35;15.10;;;6.80;;
68126;SDS011;54931;52.098;21.006;2023-04-06T04:48:03;13.90;;;6.90;;
68126;SDS011;54931;52.098;21.006;2023-04-06T04:50:32;17.60;;;6.80;;
68126;SDS011;54931;52.098;21.006;2023-04-06T04:52:59;15.80;;;6.90;;
68126;SDS011;54931;52.098;21.006;2023-04-06T04:55:27;15.30;;;7.20;;
68126;SDS011;54931;52.098;21.006;2023-04-06T04:57:56;15.80;;;7.20;;
68126;SDS011;54931;52.098;21.006;2023-04-06T05:00:23;18.80;;;7.80;;
68126;SDS011;54931;52.098;21.006;2023-04-06T05:02:51;17.30;;;7.90;;
68126;SDS011;54931;52.098;21.006;2023-04-06T05:05:19;18.20;;;6.80;;
68126;SDS011;54931;52.098;21.006;2023-04-06T05:07:46;14.70;;;6.50;;
68126;SDS011;54931;52.098;21.006;2023-04-06T05:10:14;14.50;;;6.10;;
68126;SDS011;54931;52.098;21.006;2023-04-06T05:12:42;15.70;;;6.30;;
68126;SDS011;54931;52.098;21.006;2023-04-06T05:15:10;16.80;;;6.80;;
68126;SDS011;54931;52.098;21.006;2023-04-06T05:17:38;16.90;;;5.90;;
68126;SDS011;54931;52.098;21.006;2023-04-06T05:20:06;12.40;;;5.80;;
68126;SDS011;54931;52.098;21.006;2023-04-06T05:22:34;10.50;;;5.60;;
68126;SDS011;54931;52.098;21.006;2023-04-06T05:25:02;14.40;;;6.50;;
68126;SDS011;54931;52.098;21.006;2023-04-06T05:27:31;18.10;;;6.30;;
68126;SDS011;54931;52.098;21.006;2023-04-06T05:29:58;13.00;;;5.70;;
68126;SDS011;54931;52.098;21.006;2023-04-06T05:32:27;12.90;;;5.20;;
68126;SDS011;54931;52.098;21.006;2023-04-06T05:34:55;19.20;;;6.80;;
68126;SDS011;54931;52.098;21.006;2023-04-06T05:37:23;15.40;;;6.40;;
68126;SDS011;54931;52.098;21.006;2023-04-06T05:39:50;12.60;;;6.80;;
68126;SDS011;54931;52.098;21.006;2023-04-06T05:42:18;13.50;;;6.10;;
68126;SDS011;54931;52.098;21.006;2023-04-06T05:44:46;12.20;;;6.40;;
68126;SDS011;54931;52.098;21.006;2023-04-06T05:47:13;17.20;;;6.20;;
68126;SDS011;54931;52.098;21.006;2023-04-06T05:49:44;11.90;;;5.10;;
68126;SDS011;54931;52.098;21.006;2023-04-06T05:52:11;14.10;;;5.80;;
68126;SDS011;54931;52.098;21.006;2023-04-06T05:54:39;11.40;;;5.10;;
68126;SDS011;54931;52.098;21.006;2023-04-06T05:57:07;20.10;;;6.40;;
68126;SDS011;54931;52.098;21.006;2023-04-06T05:59:34;12.00;;;5.60;;
68126;SDS011;54931;52.098;21.006;2023-04-06T06:02:02;12.40;;;5.40;;
68126;SDS011;54931;52.098;21.006;2023-04-06T06:04:30;11.20;;;5.30;;
68126;SDS011;54931;52.098;21.006;2023-04-06T06:06:58;12.40;;;5.50;;
68126;SDS011;54931;52.098;21.006;2023-04-06T06:09:26;11.50;;;4.80;;
68126;SDS011;54931;52.098;21.006;2023-04-06T06:11:53;11.80;;;4.80;;
68126;SDS011;54931;52.098;21.006;2023-04-06T06:14:21;14.50;;;5.10;;
68126;SDS011;54931;52.098;21.006;2023-04-06T06:16:49;12.30;;;5.80;;
68126;SDS011;54931;52.098;21.006;2023-04-06T06:19:17;12.70;;;5.10;;
68126;SDS011;54931;52.098;21.006;2023-04-06T06:21:44;12.70;;;5.10;;
68126;SDS011;54931;52.098;21.006;2023-04-06T06:24:12;11.40;;;4.60;;
68126;SDS011;54931;52.098;21.006;2023-04-06T06:26:39;8.70;;;4.80;;
68126;SDS011;54931;52.098;21.006;2023-04-06T06:29:07;12.70;;;5.30;;
68126;SDS011;54931;52.098;21.006;2023-04-06T06:31:35;9.20;;;4.30;;
68126;SDS011;54931;52.098;21.006;2023-04-06T06:34:03;12.50;;;4.40;;
68126;SDS011;54931;52.098;21.006;2023-04-06T06:36:32;10.90;;;4.70;;
68126;SDS011;54931;52.098;21.006;2023-04-06T06:38:59;11.40;;;5.00;;
68126;SDS011;54931;52.098;21.006;2023-04-06T06:41:28;9.90;;;5.10;;
68126;SDS011;54931;52.098;21.006;2023-04-06T06:43:55;8.40;;;5.10;;
68126;SDS011;54931;52.098;21.006;2023-04-06T06:46:23;11.10;;;4.50;;
68126;SDS011;54931;52.098;21.006;2023-04-06T06:48:51;9.30;;;4.70;;
68126;SDS011;54931;52.098;21.006;2023-04-06T06:51:19;11.50;;;5.00;;
68126;SDS011;54931;52.098;21.006;2023-04-06T06:53:47;11.00;;;4.50;;
68126;SDS011;54931;52.098;21.006;2023-04-06T06:56:15;10.70;;;4.30;;
68126;SDS011;54931;52.098;21.006;2023-04-06T06:58:43;11.20;;;3.60;;
68126;SDS011;54931;52.098;21.006;2023-04-06T07:01:11;11.80;;;4.10;;
68126;SDS011;54931;52.098;21.006;2023-04-06T07:03:39;9.60;;;3.90;;
68126;SDS011;54931;52.098;21.006;2023-04-06T07:06:07;5.80;;;2.90;;
68126;SDS011;54931;52.098;21.006;2023-04-06T07:08:34;7.20;;;3.30;;
68126;SDS011;54931;52.098;21.006;2023-04-06T07:11:02;8.40;;;4.20;;
68126;SDS011;54931;52.098;21.006;2023-04-06T07:13:30;9.30;;;3.40;;
68126;SDS011;54931;52.098;21.006;2023-04-06T07:15:57;8.60;;;3.80;;
68126;SDS011;54931;52.098;21.006;2023-04-06T07:18:26;7.30;;;4.10;;
68126;SDS011;54931;52.098;21.006;2023-04-06T07:20:53;8.10;;;4.00;;
68126;SDS011;54931;52.098;21.006;2023-04-06T07:23:21;8.10;;;3.90;;
68126;SDS011;54931;52.098;21.006;2023-04-06T07:25:48;7.90;;;4.00;;
68126;SDS011;54931;52.098;21.006;2023-04-06T07:28:18;7.30;;;3.20;;
68126;SDS011;54931;52.098;21.006;2023-04-06T07:30:47;6.60;;;3.60;;
68126;SDS011;54931;52.098;21.006;2023-04-06T07:33:14;7.40;;;4.00;;
68126;SDS011;54931;52.098;21.006;2023-04-06T07:35:42;6.40;;;3.90;;
68126;SDS011;54931;52.098;21.006;2023-04-06T07:38:10;6.90;;;3.70;;
68126;SDS011;54931;52.098;21.006;2023-04-06T07:40:37;9.10;;;4.30;;
68126;SDS011;54931;52.098;21.006;2023-04-06T07:43:05;8.30;;;3.60;;
68126;SDS011;54931;52.098;21.006;2023-04-06T07:45:32;7.40;;;4.20;;
68126;SDS011;54931;52.098;21.006;2023-04-06T07:48:00;8.90;;;4.60;;
68126;SDS011;54931;52.098;21.006;2023-04-06T07:50:28;7.80;;;3.90;;
68126;SDS011;54931;52.098;21.006;2023-04-06T07:52:56;6.80;;;3.90;;
68126;SDS011;54931;52.098;21.006;2023-04-06T07:55:25;8.30;;;3.70;;
68126;SDS011;54931;52.098;21.006;2023-04-06T07:57:53;7.40;;;4.10;;
68126;SDS011;54931;52.098;21.006;2023-04-06T08:00:21;7.20;;;3.50;;
68126;SDS011;54931;52.098;21.006;2023-04-06T08:02:49;11.10;;;4.30;;
68126;SDS011;54931;52.098;21.006;2023-04-06T08:05:17;6.60;;;3.60;;
68126;SDS011;54931;52.098;21.006;2023-04-06T08:07:45;7.60;;;3.90;;
68126;SDS011;54931;52.098;21.006;2023-04-06T08:10:13;7.30;;;3.60;;
68126;SDS011;54931;52.098;21.006;2023-04-06T08:12:41;8.40;;;3.80;;
68126;SDS011;54931;52.098;21.006;2023-04-06T08:15:09;8.00;;;4.10;;
68126;SDS011;54931;52.098;21.006;2023-04-06T08:17:37;10.30;;;4.00;;
68126;SDS011;54931;52.098;21.006;2023-04-06T08:20:05;7.00;;;3.60;;
68126;SDS011;54931;52.098;21.006;2023-04-06T08:22:33;6.80;;;3.90;;
68126;SDS011;54931;52.098;21.006;2023-04-06T08:25:01;6.20;;;3.20;;
68126;SDS011;54931;52.098;21.006;2023-04-06T08:27:29;9.20;;;4.30;;
68126;SDS011;54931;52.098;21.006;2023-04-06T08:29:56;9.40;;;4.70;;
68126;SDS011;54931;52.098;21.006;2023-04-06T08:32:25;7.90;;;4.00;;
68126;SDS011;54931;52.098;21.006;2023-04-06T08:34:54;9.00;;;4.10;;
68126;SDS011;54931;52.098;21.006;2023-04-06T08:37:22;9.80;;;4.80;;
68126;SDS011;54931;52.098;21.006;2023-04-06T08:39:50;11.10;;;4.40;;
68126;SDS011;54931;52.098;21.006;2023-04-06T08:42:20;10.30;;;4.10;;
68126;SDS011;54931;52.098;21.006;2023-04-06T08:44:53;8.70;;;4.40;;
68126;SDS011;54931;52.098;21.006;2023-04-06T08:47:22;7.10;;;4.10;;
68126;SDS011;54931;52.098;21.006;2023-04-06T08:49:51;7.50;;;4.20;;
68126;SDS011;54931;52.098;21.006;2023-04-06T08:52:20;9.70;;;3.90;;
68126;SDS011;54931;52.098;21.006;2023-04-06T08:54:49;10.80;;;4.30;;
68126;SDS011;54931;52.098;21.006;2023-04-06T08:57:18;10.00;;;4.50;;
68126;SDS011;54931;52.098;21.006;2023-04-06T08:59:47;7.10;;;4.30;;
68126;SDS011;54931;52.098;21.006;2023-04-06T09:02:18;14.70;;;6.10;;
68126;SDS011;54931;52.098;21.006;2023-04-06T09:04:48;9.90;;;4.50;;
68126;SDS011;54931;52.098;21.006;2023-04-06T09:07:19;8.80;;;4.40;;
68126;SDS011;54931;52.098;21.006;2023-04-06T09:09:48;8.60;;;4.80;;
68126;SDS011;54931;52.098;21.006;2023-04-06T09:12:26;8.30;;;4.40;;
68126;SDS011;54931;52.098;21.006;2023-04-06T09:14:56;11.30;;;5.50;;
68126;SDS011;54931;52.098;21.006;2023-04-06T09:17:29;9.40;;;3.80;;
68126;SDS011;54931;52.098;21.006;2023-04-06T09:20:00;6.60;;;4.50;;
68126;SDS011;54931;52.098;21.006;2023-04-06T09:22:39;9.90;;;5.20;;
68126;SDS011;54931;52.098;21.006;2023-04-06T09:25:09;11.00;;;4.60;;
68126;SDS011;54931;52.098;21.006;2023-04-06T09:27:38;10.00;;;4.70;;
68126;SDS011;54931;52.098;21.006;2023-04-06T09:30:10;10.70;;;5.10;;
68126;SDS011;54931;52.098;21.006;2023-04-06T09:32:51;12.90;;;5.10;;
68126;SDS011;54931;52.098;21.006;2023-04-06T09:35:21;9.60;;;5.30;;
68126;SDS011;54931;52.098;21.006;2023-04-06T09:37:50;11.70;;;5.40;;
68126;SDS011;54931;52.098;21.006;2023-04-06T09:40:19;10.10;;;5.30;;
68126;SDS011;54931;52.098;21.006;2023-04-06T09:42:49;10.10;;;5.00;;
68126;SDS011;54931;52.098;21.006;2023-04-06T09:45:20;10.20;;;5.20;;
68126;SDS011;54931;52.098;21.006;2023-04-06T09:47:49;9.60;;;4.90;;
68126;SDS011;54931;52.098;21.006;2023-04-06T09:50:19;10.90;;;5.10;;
68126;SDS011;54931;52.098;21.006;2023-04-06T09:52:49;11.30;;;5.00;;
68126;SDS011;54931;52.098;21.006;2023-04-06T09:55:35;10.80;;;5.00;;
68126;SDS011;54931;52.098;21.006;2023-04-06T09:58:13;12.40;;;5.40;;
68126;SDS011;54931;52.098;21.006;2023-04-06T10:03:43;8.70;;;5.40;;
68126;SDS011;54931;52.098;21.006;2023-04-06T10:06:17;9.30;;;5.20;;
68126;SDS011;54931;52.098;21.006;2023-04-06T10:08:50;10.50;;;5.20;;
68126;SDS011;54931;52.098;21.006;2023-04-06T10:11:22;8.40;;;5.00;;
68126;SDS011;54931;52.098;21.006;2023-04-06T10:13:50;11.40;;;5.80;;
68126;SDS011;54931;52.098;21.006;2023-04-06T10:16:18;10.50;;;5.20;;
68126;SDS011;54931;52.098;21.006;2023-04-06T10:19:00;10.80;;;5.90;;
68126;SDS011;54931;52.098;21.006;2023-04-06T10:24:07;11.40;;;5.20;;
68126;SDS011;54931;52.098;21.006;2023-04-06T10:26:39;11.40;;;6.00;;
68126;SDS011;54931;52.098;21.006;2023-04-06T10:29:07;8.60;;;5.10;;
68126;SDS011;54931;52.098;21.006;2023-04-06T10:31:42;8.50;;;5.10;;
68126;SDS011;54931;52.098;21.006;2023-04-06T10:34:11;11.20;;;5.50;;
68126;SDS011;54931;52.098;21.006;2023-04-06T10:36:40;10.80;;;4.90;;
68126;SDS011;54931;52.098;21.006;2023-04-06T10:39:10;8.40;;;4.90;;
68126;SDS011;54931;52.098;21.006;2023-04-06T10:41:43;10.80;;;6.10;;
68126;SDS011;54931;52.098;21.006;2023-04-06T10:44:23;10.70;;;5.80;;
68126;SDS011;54931;52.098;21.006;2023-04-06T10:46:56;10.80;;;5.90;;
68126;SDS011;54931;52.098;21.006;2023-04-06T10:49:25;10.60;;;5.70;;
68126;SDS011;54931;52.098;21.006;2023-04-06T10:51:55;13.20;;;5.80;;
68126;SDS011;54931;52.098;21.006;2023-04-06T10:54:25;11.90;;;6.50;;
68126;SDS011;54931;52.098;21.006;2023-04-06T10:56:54;14.30;;;6.00;;
68126;SDS011;54931;52.098;21.006;2023-04-06T10:59:23;10.90;;;5.60;;
68126;SDS011;54931;52.098;21.006;2023-04-06T11:01:52;13.00;;;6.70;;
68126;SDS011;54931;52.098;21.006;2023-04-06T11:04:22;14.10;;;7.10;;
68126;SDS011;54931;52.098;21.006;2023-04-06T11:06:50;16.00;;;7.10;;
68126;SDS011;54931;52.098;21.006;2023-04-06T11:09:29;14.30;;;6.80;;
68126;SDS011;54931;52.098;21.006;2023-04-06T11:11:59;13.80;;;6.50;;
68126;SDS011;54931;52.098;21.006;2023-04-06T11:14:27;13.60;;;7.00;;
68126;SDS011;54931;52.098;21.006;2023-04-06T11:16:55;13.10;;;6.40;;
68126;SDS011;54931;52.098;21.006;2023-04-06T11:19:23;11.80;;;6.30;;
68126;SDS011;54931;52.098;21.006;2023-04-06T11:21:50;12.70;;;6.30;;
68126;SDS011;54931;52.098;21.006;2023-04-06T11:24:24;13.40;;;7.30;;
68126;SDS011;54931;52.098;21.006;2023-04-06T11:26:58;11.50;;;6.50;;
68126;SDS011;54931;52.098;21.006;2023-04-06T11:29:29;13.00;;;6.20;;
68126;SDS011;54931;52.098;21.006;2023-04-06T11:32:01;11.30;;;6.50;;
68126;SDS011;54931;52.098;21.006;2023-04-06T11:34:37;14.20;;;7.50;;
68126;SDS011;54931;52.098;21.006;2023-04-06T11:37:10;13.40;;;7.30;;
68126;SDS011;54931;52.098;21.006;2023-04-06T11:39:50;12.40;;;6.80;;
68126;SDS011;54931;52.098;21.006;2023-04-06T11:42:26;14.00;;;6.90;;
68126;SDS011;54931;52.098;21.006;2023-04-06T11:44:57;12.60;;;7.10;;
68126;SDS011;54931;52.098;21.006;2023-04-06T11:47:35;17.80;;;9.10;;
68126;SDS011;54931;52.098;21.006;2023-04-06T11:50:08;12.60;;;6.80;;
68126;SDS011;54931;52.098;21.006;2023-04-06T11:52:41;12.30;;;6.20;;
68126;SDS011;54931;52.098;21.006;2023-04-06T11:55:11;13.60;;;7.50;;
68126;SDS011;54931;52.098;21.006;2023-04-06T11:57:42;13.30;;;7.00;;
68126;SDS011;54931;52.098;21.006;2023-04-06T12:00:10;11.60;;;6.90;;
68126;SDS011;54931;52.098;21.006;2023-04-06T12:02:39;22.80;;;11.50;;
68126;SDS011;54931;52.098;21.006;2023-04-06T12:05:12;18.90;;;8.90;;
68126;SDS011;54931;52.098;21.006;2023-04-06T12:07:40;15.40;;;8.20;;
68126;SDS011;54931;52.098;21.006;2023-04-06T12:10:08;14.80;;;8.10;;
68126;SDS011;54931;52.098;21.006;2023-04-06T12:12:36;16.00;;;8.70;;
68126;SDS011;54931;52.098;21.006;2023-04-06T12:15:04;14.60;;;8.40;;
68126;SDS011;54931;52.098;21.006;2023-04-06T12:17:33;16.70;;;8.70;;
68126;SDS011;54931;52.098;21.006;2023-04-06T12:20:00;13.40;;;8.20;;
68126;SDS011;54931;52.098;21.006;2023-04-06T12:22:30;16.40;;;8.00;;
68126;SDS011;54931;52.098;21.006;2023-04-06T12:24:57;13.20;;;7.10;;
68126;SDS011;54931;52.098;21.006;2023-04-06T12:27:25;16.40;;;8.20;;
68126;SDS011;54931;52.098;21.006;2023-04-06T12:29:53;16.80;;;8.50;;
68126;SDS011;54931;52.098;21.006;2023-04-06T12:32:21;16.30;;;8.40;;
68126;SDS011;54931;52.098;21.006;2023-04-06T12:34:48;13.60;;;8.10;;
68126;SDS011;54931;52.098;21.006;2023-04-06T12:37:16;15.00;;;8.40;;
68126;SDS011;54931;52.098;21.006;2023-04-06T12:39:44;16.60;;;8.40;;
68126;SDS011;54931;52.098;21.006;2023-04-06T12:42:12;15.00;;;8.30;;
68126;SDS011;54931;52.098;21.006;2023-04-06T12:44:41;17.20;;;9.10;;
68126;SDS011;54931;52.098;21.006;2023-04-06T12:47:10;18.90;;;8.60;;
68126;SDS011;54931;52.098;21.006;2023-04-06T12:49:38;15.60;;;8.50;;
68126;SDS011;54931;52.098;21.006;2023-04-06T12:52:05;13.70;;;7.70;;
68126;SDS011;54931;52.098;21.006;2023-04-06T12:54:33;15.70;;;10.30;;
68126;SDS011;54931;52.098;21.006;2023-04-06T12:57:01;15.30;;;8.80;;
68126;SDS011;54931;52.098;21.006;2023-04-06T12:59:29;17.20;;;9.10;;
68126;SDS011;54931;52.098;21.006;2023-04-06T13:02:03;16.70;;;9.10;;
68126;SDS011;54931;52.098;21.006;2023-04-06T13:04:32;15.80;;;8.60;;
68126;SDS011;54931;52.098;21.006;2023-04-06T13:07:00;18.00;;;9.30;;
68126;SDS011;54931;52.098;21.006;2023-04-06T13:09:27;17.80;;;9.20;;
68126;SDS011;54931;52.098;21.006;2023-04-06T13:11:55;14.40;;;8.10;;
68126;SDS011;54931;52.098;21.006;2023-04-06T13:14:23;17.90;;;8.40;;
68126;SDS011;54931;52.098;21.006;2023-04-06T13:16:51;15.90;;;8.00;;
68126;SDS011;54931;52.098;21.006;2023-04-06T13:19:19;17.20;;;8.60;;
68126;SDS011;54931;52.098;21.006;2023-04-06T13:21:47;14.70;;;7.80;;
68126;SDS011;54931;52.098;21.006;2023-04-06T13:24:14;14.30;;;7.40;;
68126;SDS011;54931;52.098;21.006;2023-04-06T13:26:42;13.40;;;8.10;;
68126;SDS011;54931;52.098;21.006;2023-04-06T13:29:10;14.60;;;7.90;;
68126;SDS011;54931;52.098;21.006;2023-04-06T13:31:38;12.80;;;7.90;;
68126;SDS011;54931;52.098;21.006;2023-04-06T13:34:06;16.90;;;8.30;;
68126;SDS011;54931;52.098;21.006;2023-04-06T13:36:35;15.30;;;7.90;;
68126;SDS011;54931;52.098;21.006;2023-04-06T13:39:03;15.40;;;8.30;;
68126;SDS011;54931;52.098;21.006;2023-04-06T13:41:31;14.80;;;9.10;;
68126;SDS011;54931;52.098;21.006;2023-04-06T13:43:58;13.30;;;7.70;;
68126;SDS011;54931;52.098;21.006;2023-04-06T13:46:26;16.40;;;8.60;;
68126;SDS011;54931;52.098;21.006;2023-04-06T13:48:55;19.00;;;8.50;;
68126;SDS011;54931;52.098;21.006;2023-04-06T13:51:23;16.00;;;9.20;;
68126;SDS011;54931;52.098;21.006;2023-04-06T13:53:51;15.00;;;8.60;;
68126;SDS011;54931;52.098;21.006;2023-04-06T13:56:20;14.50;;;7.60;;
68126;SDS011;54931;52.098;21.006;2023-04-06T13:58:48;16.10;;;8.90;;
68126;SDS011;54931;52.098;21.006;2023-04-06T14:01:15;15.10;;;8.80;;
68126;SDS011;54931;52.098;21.006;2023-04-06T14:03:44;16.70;;;8.50;;
68126;SDS011;54931;52.098;21.006;2023-04-06T14:06:14;16.20;;;8.20;;
68126;SDS011;54931;52.098;21.006;2023-04-06T14:08:42;15.90;;;8.50;;
68126;SDS011;54931;52.098;21.006;2023-04-06T14:11:13;17.70;;;9.70;;
68126;SDS011;54931;52.098;21.006;2023-04-06T14:13:41;15.80;;;8.70;;
68126;SDS011;54931;52.098;21.006;2023-04-06T14:16:09;22.10;;;10.80;;
68126;SDS011;54931;52.098;21.006;2023-04-06T14:18:37;19.00;;;10.60;;
68126;SDS011;54931;52.098;21.006;2023-04-06T14:21:05;18.60;;;9.10;;
68126;SDS011;54931;52.098;21.006;2023-04-06T14:23:33;16.60;;;9.00;;
68126;SDS011;54931;52.098;21.006;2023-04-06T14:26:04;17.70;;;9.10;;
68126;SDS011;54931;52.098;21.006;2023-04-06T14:28:33;15.10;;;9.30;;
68126;SDS011;54931;52.098;21.006;2023-04-06T14:31:08;12.90;;;7.70;;
68126;SDS011;54931;52.098;21.006;2023-04-06T14:33:39;17.90;;;10.00;;
68126;SDS011;54931;52.098;21.006;2023-04-06T14:36:08;15.70;;;8.80;;
68126;SDS011;54931;52.098;21.006;2023-04-06T14:38:36;18.40;;;8.60;;